Tiempo atmosférico en la estación meteorológica de Almendralejo, Badajoz (371 m.)



Fecha
DESCASC
Temp. máxima en grados centígrados (hora)
DESCASC
Temp. mínima en grados centígrados (hora)
DESCASC
Temp. media en grados centígrados
DESCASC
Racha de viento máxima en m/sg (hora)
DESCASC
Velocidad máxima media en intervalos de 10 minutos(hora)
DESCASC
Precipitaciones diarias en mm
DESCASC
Precipitaciones de 00:00 a 06:00 en mm
DESCASC
Precipitaciones de 06:00 a 12:00 en mm
DESCASC
Precipitaciones de 12:00 a 18:00 en mm
DESCASC
Precipitaciones de 18:00 a 24:00 en mm
DESCASC
23-05-2018 26 (17:00) 13.6 (06:20) 19.8 7.22 (17:50) 4.72 (17:50) 0 0 0 0 0
22-05-2018 26 (19:00) 11.3 (06:40) 18.7 8.33 (14:00) 4.17 (20:30) 0 0 0 0 0
21-05-2018 22.7 (19:30) 11.2 (07:00) 17 11.94 (15:30) 8.33 (15:30) 0 0 0 0 0
20-05-2018 22.3 (15:10) 14 (00:00) 18.1 9.17 (17:30) 6.11 (17:20) 9.6 0 0.6 8.8 0.2
19-05-2018 24.3 (16:30) 13.6 (00:00) 18.9 12.78 (19:10) 7.78 (19:10) 5.4 0 0 0 5.4
18-05-2018 25.9 (15:00) 13.9 (00:00) 19.9 12.5 (16:10) 8.06 (16:20) 21 0.4 0.2 16.4 4
17-05-2018 28 (17:30) 12.7 (00:00) 20.3 13.06 (14:20) 6.67 (23:30) 0 0 0 0 0
16-05-2018 28.3 (17:20) 12.5 (00:00) 20.4 8.89 (14:10) 5.28 (13:30) 0 0 0 0 0
15-05-2018 25.8 (18:30) 11.2 (00:00) 18.5 8.61 (15:30) 4.72 (11:20) 0 0 0 0 0
14-05-2018 23.4 (16:10) 8.6 (00:00) 16 11.67 (17:50) 7.5 (17:10) 0 0 0 0 0
13-05-2018 19.9 (17:00) 5.6 (00:00) 12.7 11.67 (12:10) 6.67 (12:30) 0 0 0 0 0
12-05-2018 20.4 (17:10) 10.8 (00:00) 15.6 13.61 (18:00) 8.61 (19:50) 0.2 0 0.2 0 0
11-05-2018 25.8 (17:20) 11.8 (07:10) 18.8 9.44 (22:30) 6.39 (22:30) 0 0 0 0 0
10-05-2018 24.7 (17:00) 9.6 (00:00) 17.2 8.06 (00:10) 5.28 (01:20) 0 0 0 0 0
09-05-2018 22 (16:30) 11.8 (00:00) 16.9 11.94 (16:50) 7.22 (17:00) 0 0 0 0 0
08-05-2018 26.5 (19:00) 15.4 (00:00) 20.9 10.56 (18:00) 6.11 (21:40) 0 0 0 0 0
07-05-2018 26.6 (16:40) 12.4 (00:00) 19.5 8.61 (21:20) 6.67 (19:00) 0 0 0 0 0
06-05-2018 26.4 (17:30) 11.3 (00:00) 18.8 11.39 (17:50) 6.67 (17:50) 1.8 0 0 1.2 0.6
05-05-2018 25 (16:40) 9.4 (00:00) 17.2 7.78 (17:10) 4.72 (17:10) 0 0 0 0 0
04-05-2018 21 (17:30) 8.6 (00:00) 14.8 11.67 (14:40) 4.72 (11:50) 0 0 0 0 0
03-05-2018 22.1 (16:20) 8.5 (00:00) 15.3 10.28 (19:00) 6.39 (18:20) 0 0 0 0 0
02-05-2018 18.1 (17:00) 6.1 (00:00) 12.1 9.17 (18:20) 5.56 (18:20) 0 0 0 0 0
01-05-2018 16.8 (18:00) 8.3 (07:50) 12.5 11.67 (18:10) 7.22 (18:20) 0.6 0 0 0.6 0
30-04-2018 16.5 (16:50) 6.3 (00:00) 11.4 10 (15:20) 4.72 (16:10) 0.2 0 0 0 0.2
29-04-2018 13.9 (18:00) 6.9 (00:00) 10.4 16.67 (16:30) 9.72 (16:30) 3.4 2.2 0 1.2 0
28-04-2018 16.1 (16:40) 7.4 (00:00) 11.8 11.67 (20:10) 8.61 (20:10) 8 0 0 0 8

Gráficas

Temp. máximas Temp. mínimas Temp. medias Precipitaciones Rachas de viento máximas Velocidades máximas media en intervalos de 10 minutos

Datos horarios

Fecha y hora oficial Temperatura (ºC) Velocidad del viento (km/h) Dirección del viento Racha (km/h) Dirección de racha Precipitación (mm) Presión (hPa) Tendencia (hPa) Humedad (%)
2018-05-27 23:00:00 -- -- -- -- -- -- -- -- --
2018-05-27 22:00:00 -- -- -- -- -- -- -- -- --
2018-05-27 21:00:00 -- -- -- -- -- -- -- -- --
2018-05-27 20:00:00 16.8 3 Sudoeste 18 Norte 2 -- -- 87
2018-05-27 19:00:00 17.5 7 Noroeste 46 Noroeste 10.2 -- -- 84
2018-05-27 18:00:00 19.4 20 Noroeste 38 Noroeste 0 -- -- 79
2018-05-27 17:00:00 20.7 12 Noroeste 28 Noroeste 0 -- -- 57
2018-05-27 16:00:00 23.3 13 Oeste 22 Oeste 0 -- -- 53
2018-05-27 15:00:00 22.6 11 Noroeste 23 Oeste 0 -- -- 56
2018-05-27 14:00:00 22.6 12 Noroeste 21 Noroeste 0 -- -- 60
2018-05-27 13:00:00 23 8 Noroeste 20 Noroeste 0 -- -- 61
2018-05-27 12:00:00 21.7 9 Noroeste 21 Noroeste 0 -- -- 64
2018-05-27 11:00:00 20 8 Noroeste 15 Oeste 0 -- -- 74
2018-05-27 10:00:00 18 9 Noroeste 15 Noroeste 0 -- -- 80
2018-05-27 09:00:00 15.8 2 Oeste 11 Sudoeste 0 -- -- 87
2018-05-27 08:00:00 13.1 8 Sudoeste 12 Sur 0 -- -- 93
2018-05-27 07:00:00 12.5 10 Sur 13 Sur 0 -- -- 93
2018-05-27 06:00:00 13.9 3 Noroeste 9 Sudoeste 0 -- -- 91
2018-05-27 05:00:00 13.5 4 Sudoeste 8 Sudoeste 0 -- -- 90
2018-05-27 04:00:00 14.6 6 Oeste 12 Noroeste 0 -- -- 89
2018-05-27 03:00:00 15.5 9 Noroeste 17 Oeste 0 -- -- 86
2018-05-27 02:00:00 16 12 Oeste 18 Oeste 0 -- -- 83
2018-05-27 01:00:00 16.1 8 Oeste 12 Oeste 0 -- -- 84
2018-05-27 00:00:00 16.9 6 Oeste 11 Oeste 0 -- -- 79
2018-05-26 23:00:00 17.7 9 Oeste 12 Oeste 0 -- -- 76
2018-05-26 22:00:00 18.6 8 Oeste 11 Sudoeste 0 -- -- 72
2018-05-26 21:00:00 20.6 8 Sudoeste 14 Sudoeste 0 -- -- 64
2018-05-26 20:00:00 21.2 2 Sudeste 6 Este 0 -- -- 61
2018-05-26 19:00:00 21.7 6 Sudeste 9 Sudeste 0 -- -- 52
2018-05-26 18:00:00 22.6 3 Sudoeste 12 Nordeste 0 -- -- 52
2018-05-26 17:00:00 22.3 5 Este 17 Noroeste 0 -- -- 55
2018-05-26 16:00:00 21.9 5 Nordeste 13 Noroeste 0 -- -- 54
2018-05-26 15:00:00 21.6 7 Sudoeste 13 Sudoeste 0 -- -- 57
2018-05-26 14:00:00 20.3 6 Norte 15 Sur 0 -- -- 60
2018-05-26 13:00:00 19.7 5 Sudoeste 15 Sudoeste 0 -- -- 63
2018-05-26 12:00:00 18.8 9 Sur 17 Sur 0 -- -- 72
2018-05-26 11:00:00 17.5 12 Sur 17 Sur 0 -- -- 79
2018-05-26 10:00:00 15.6 9 Sur 14 Sur 0 -- -- 87
2018-05-26 09:00:00 12.6 7 Sur 16 Sur 0 -- -- 95
2018-05-26 08:00:00 11.6 10 Sur 15 Sur 0 -- -- 96
2018-05-26 07:00:00 11 9 Sur 13 Sur 0 -- -- 97
2018-05-26 06:00:00 11.5 10 Sur 14 Sur 0 -- -- 97
2018-05-26 05:00:00 11.9 10 Sur 14 Sur 0 -- -- 96
2018-05-26 04:00:00 12.4 9 Sur 11 Sur 0 -- -- 96
2018-05-26 03:00:00 12.7 5 Sudoeste 12 Sur 0 -- -- 94
2018-05-26 02:00:00 13.2 8 Sur 10 Sur 0 -- -- 94
2018-05-26 01:00:00 13.3 8 Sur 9 Sur 0 -- -- 94
2018-05-26 00:00:00 13.7 4 Sudeste 7 Este 0 -- -- 92
2018-05-25 23:00:00 14 3 Este 8 Sudeste 0 -- -- 89
2018-05-25 22:00:00 14.7 3 Sudeste 9 Este 0 -- -- 89
2018-05-25 21:00:00 15.4 3 Sudeste 11 Sur 0 -- -- 83
2018-05-25 20:00:00 14.9 2 Sur 12 Oeste 0.4 -- -- 78
2018-05-25 19:00:00 14 5 Oeste 37 Oeste 11.2 -- -- 85
2018-05-25 18:00:00 18.2 14 Noroeste 21 Noroeste 0 -- -- 69
2018-05-25 17:00:00 21.3 5 Oeste 17 Sur 0 -- -- 48
2018-05-25 16:00:00 20.4 9 Sur 26 Sudoeste 0 -- -- 52
2018-05-25 15:00:00 19.3 18 Sudoeste 29 Sudoeste 0 -- -- 69
2018-05-25 14:00:00 18.5 10 Sudoeste 19 Sudoeste 0 -- -- 66
2018-05-25 13:00:00 16.3 13 Sudoeste 22 Sudoeste 0 -- -- 76
2018-05-25 12:00:00 17.5 6 Sudoeste 17 Sudoeste 0 -- -- 68
2018-05-25 11:00:00 16.6 9 Sudoeste 15 Sudoeste 0 -- -- 75
2018-05-25 10:00:00 14.5 6 Sudoeste 10 Sur 0.2 -- -- 86
2018-05-25 09:00:00 12.5 6 Sur 12 Sur 0 -- -- 93
2018-05-25 08:00:00 12 8 Sudoeste 14 Sudoeste 0 -- -- 93
2018-05-25 07:00:00 11.6 9 Sur 14 Sur 0 -- -- 95
2018-05-25 06:00:00 11.5 8 Sur 12 Sur 0 -- -- 96
2018-05-25 05:00:00 11.6 2 Nordeste 9 Sudoeste 0 -- -- 96
2018-05-25 04:00:00 11.9 6 Sudoeste 10 Sudoeste 0 -- -- 94
2018-05-25 03:00:00 12.2 7 Sudoeste 13 Sudoeste 0 -- -- 92
2018-05-25 02:00:00 12.5 10 Sudoeste 16 Sudoeste 0 -- -- 90
2018-05-25 01:00:00 13.2 14 Sudoeste 24 Sudoeste 0 -- -- 86
2018-05-25 00:00:00 14.4 8 Sudoeste 12 Sudoeste 0 -- -- 92
2018-05-24 23:00:00 14.3 6 Sur 15 Sudoeste 0.2 -- -- 95
2018-05-24 22:00:00 14.2 9 Sur 36 Sudoeste 1.4 -- -- 92
2018-05-24 21:00:00 15.9 14 Sudoeste 22 Sudoeste 0 -- -- 83
2018-05-24 20:00:00 16.1 3 Oeste 13 Oeste 0 -- -- 90
2018-05-24 19:00:00 16.1 10 Oeste 18 Oeste 0 -- -- 90
2018-05-24 18:00:00 16.5 10 Noroeste 23 Noroeste 0 -- -- 88
2018-05-24 17:00:00 16.8 13 Noroeste 27 Noroeste 0 -- -- 88
2018-05-24 16:00:00 17.7 17 Noroeste 32 Noroeste 0 -- -- 81
2018-05-24 15:00:00 18.2 14 Noroeste 26 Noroeste 0 -- -- 84
2018-05-24 14:00:00 17.7 15 Noroeste 25 Noroeste 0 -- -- 86
2018-05-24 13:00:00 18.2 14 Noroeste 20 Noroeste 0 -- -- 86
2018-05-24 12:00:00 17.9 7 Noroeste 12 Noroeste 0 -- -- 88
2018-05-24 11:00:00 17.3 8 Noroeste 13 Oeste 0 -- -- 88
2018-05-24 10:00:00 16 3 Nordeste 14 Nordeste 0.2 -- -- 92
2018-05-24 09:00:00 15.4 8 Nordeste 21 Oeste 2.4 -- -- 94
2018-05-24 08:00:00 15.4 13 Sudoeste 19 Sudoeste 1.2 -- -- 90
2018-05-24 07:00:00 15.7 7 Sudoeste 9 Sudoeste 0 -- -- 82
2018-05-24 06:00:00 15.9 3 Oeste 5 Sudoeste 0 -- -- 76
2018-05-24 05:00:00 16.5 2 Sudeste 2 Sudeste 0 -- -- 76
2018-05-24 04:00:00 17.5 3 Noroeste 7 Noroeste 0 -- -- 72
2018-05-24 03:00:00 18.1 5 Noroeste 11 Noroeste 0 -- -- 70
2018-05-24 02:00:00 18.9 5 Noroeste 12 Nordeste 0 -- -- 68
2018-05-24 01:00:00 19.4 5 Norte 12 Norte 0 -- -- 65
2018-05-24 00:00:00 20.3 7 Norte 16 Noroeste 0 -- -- 62
2018-05-23 23:00:00 21.5 3 Noroeste 6 Noroeste 0 -- -- 54
2018-05-23 22:00:00 22.6 5 Sudoeste 18 Sudoeste 0 -- -- 50
2018-05-23 21:00:00 24 12 Sudoeste 22 Sur 0 -- -- 43
2018-05-23 20:00:00 25.4 14 Sur 23 Sudeste 0 -- -- 40
2018-05-23 19:00:00 24.5 9 Sudoeste 22 Sur 0 -- -- 44
2018-05-23 18:00:00 24 14 Sur 26 Sur 0 -- -- 46
2018-05-23 17:00:00 26 9 Sur 22 Sur 0 -- -- 40
2018-05-23 16:00:00 25.3 4 Sudeste 23 Sur 0 -- -- 38
2018-05-23 15:00:00 25.3 11 Sur 24 Sur 0 -- -- 40
2018-05-23 14:00:00 25.1 6 Sudeste 19 Sur 0 -- -- 41
2018-05-23 13:00:00 23.7 8 Este 17 Este 0 -- -- 51
2018-05-23 12:00:00 22.2 6 Este 14 Este 0 -- -- 55
2018-05-23 11:00:00 20.6 3 Sudeste 9 Sudeste 0 -- -- 59
2018-05-23 10:00:00 18.4 0 Calma 7 Sur 0 -- -- 67
2018-05-23 09:00:00 15.6 6 Sur 11 Sur 0 -- -- 77
2018-05-23 08:00:00 14.1 7 Sur 9 Sur 0 -- -- 82
2018-05-23 07:00:00 13.7 7 Sudeste 9 Sur 0 -- -- 82
2018-05-23 06:00:00 13.9 3 Sudeste 8 Sur 0 -- -- 79
2018-05-23 05:00:00 14.4 6 Sudoeste 7 Sudoeste 0 -- -- 75
2018-05-23 04:00:00 15.3 0 Calma 8 Noroeste 0 -- -- 73
2018-05-23 03:00:00 16.7 6 Noroeste 10 Noroeste 0 -- -- 66
2018-05-23 02:00:00 16.7 5 Oeste 7 Oeste 0 -- -- 68
2018-05-23 01:00:00 17.5 4 Sudoeste 8 Noroeste 0 -- -- 69
2018-05-23 00:00:00 19.1 5 Noroeste 10 Noroeste 0 -- -- 58
2018-05-22 23:00:00 19.7 8 Noroeste 13 Noroeste 0 -- -- 58
2018-05-22 22:00:00 21.3 7 Noroeste 13 Oeste 0 -- -- 51
2018-05-22 21:00:00 22.9 11 Oeste 21 Oeste 0 -- -- 42
2018-05-22 20:00:00 23.9 11 Oeste 21 Sudoeste 0 -- -- 37
2018-05-22 19:00:00 26 10 Oeste 22 Sudoeste 0 -- -- 36
2018-05-22 18:00:00 25.7 14 Sudoeste 22 Sudoeste 0 -- -- 37
2018-05-22 17:00:00 25.1 11 Sur 22 Sudoeste 0 -- -- 39
2018-05-22 16:00:00 24.6 14 Sur 23 Sur 0 -- -- 41
2018-05-22 15:00:00 23.5 11 Sur 27 Sur 0 -- -- 55
2018-05-22 14:00:00 21.8 13 Sudeste 30 Sur 0 -- -- 63
2018-05-22 13:00:00 20.5 12 Sur 20 Sur 0 -- -- 74
2018-05-22 12:00:00 18.4 11 Sudeste 20 Sur 0 -- -- 81
2018-05-22 11:00:00 16.3 13 Sur 19 Sudeste 0 -- -- 89
2018-05-22 10:00:00 14.6 13 Sur 19 Sur 0 -- -- 91
2018-05-22 09:00:00 13.9 11 Sur 17 Sur 0 -- -- 91
2018-05-22 08:00:00 12.1 7 Sur 10 Sur 0 -- -- 95
2018-05-22 07:00:00 11.3 7 Sur 10 Sur 0 -- -- 94
2018-05-22 06:00:00 12.2 5 Sur 7 Sur 0 -- -- 90
2018-05-22 05:00:00 13.3 4 Noroeste 9 Noroeste 0 -- -- 90
2018-05-22 04:00:00 13 5 Sur 9 Sudoeste 0 -- -- 85
2018-05-22 03:00:00 14.8 4 Noroeste 13 Oeste 0 -- -- 80
2018-05-22 02:00:00 14.5 9 Oeste 15 Oeste 0 -- -- 80
2018-05-22 01:00:00 14.8 9 Sudoeste 10 Sudoeste 0 -- -- 78
2018-05-22 00:00:00 15.4 7 Sudoeste 9 Oeste 0 -- -- 72
2018-05-21 23:00:00 16.9 7 Oeste 10 Oeste 0 -- -- 63
2018-05-21 22:00:00 18.7 5 Oeste 15 Noroeste 0 -- -- 53
2018-05-21 21:00:00 20.5 9 Noroeste 21 Oeste 0 -- -- 50
2018-05-21 20:00:00 22.4 13 Noroeste 21 Oeste 0 -- -- 48
2018-05-21 19:00:00 22.1 3 Norte 17 Sur 0 -- -- 58
2018-05-21 18:00:00 21.9 10 Sur 19 Sur 0 -- -- 60
2018-05-21 17:00:00 20 12 Sur 22 Sur 0 -- -- 68
2018-05-21 16:00:00 17.7 18 Sudoeste 43 Oeste 0 -- -- 75
2018-05-21 15:00:00 22 8 Noroeste 22 Norte 0 -- -- 57
2018-05-21 14:00:00 21.4 8 Noroeste 19 Noroeste 0 -- -- 67
2018-05-21 13:00:00 20.6 3 Sudoeste 12 Sudoeste 0 -- -- 65
2018-05-21 12:00:00 19.2 2 Sudoeste 9 Noroeste 0 -- -- 70
2018-05-21 11:00:00 17.5 3 Este 8 Nordeste 0 -- -- 77
2018-05-21 10:00:00 16.2 4 Nordeste 7 Norte 0 -- -- 81
2018-05-21 09:00:00 14.2 5 Sur 8 Sur 0 -- -- 92
2018-05-21 08:00:00 11.9 4 Sudoeste 8 Sudoeste 0 -- -- 97
2018-05-21 07:00:00 11.2 4 Sur 8 Sur 0 -- -- 96
2018-05-21 06:00:00 12.2 2 Norte 11 Noroeste 0 -- -- 94
2018-05-21 05:00:00 12.6 5 Oeste 12 Noroeste 0 -- -- 92
2018-05-21 04:00:00 12.4 9 Sur 11 Sudeste 0 -- -- 94
2018-05-21 03:00:00 12.7 8 Sur 10 Sudoeste 0 -- -- 92
2018-05-21 02:00:00 13.4 8 Oeste 10 Oeste 0 -- -- 91
2018-05-21 01:00:00 14.1 4 Oeste 12 Noroeste 0 -- -- 86
2018-05-21 00:00:00 14.8 8 Noroeste 13 Noroeste 0 -- -- 88
2018-05-20 23:00:00 15.7 5 Sur 8 Sudeste 0 -- -- 79
2018-05-20 22:00:00 15.7 6 Sudeste 9 Sudeste 0 -- -- 83
2018-05-20 21:00:00 16.8 9 Sudeste 15 Sudeste 0 -- -- 76
2018-05-20 20:00:00 17.4 8 Sudeste 12 Sudeste 0 -- -- 78
2018-05-20 19:00:00 16.3 5 Sudoeste 26 Sur 0.2 -- -- 81
2018-05-20 18:00:00 15.3 14 Nordeste 33 Noroeste 2.4 -- -- 79
2018-05-20 17:00:00 14.7 13 Nordeste 23 Noroeste 4 -- -- 88
2018-05-20 16:00:00 17.2 14 Noroeste 32 Oeste 2.4 -- -- 79
2018-05-20 15:00:00 22 12 Sur 21 Sur 0 -- -- 71
2018-05-20 14:00:00 20.7 8 Sur 15 Sur 0 -- -- 69
2018-05-20 13:00:00 19.9 3 Norte 13 Nordeste 0 -- -- 73
2018-05-20 12:00:00 18.9 5 Norte 14 Noroeste 0 -- -- 78
2018-05-20 11:00:00 15.4 7 Sur 18 Sur 0 -- -- 91
2018-05-20 10:00:00 14.9 5 Sudoeste 14 Norte 0.6 -- -- 93
2018-05-20 09:00:00 14.8 5 Este 8 Sur 0 -- -- 92
2018-05-20 08:00:00 14.3 7 Sur 9 Sur 0 -- -- 91
2018-05-20 07:00:00 14.1 5 Sur 8 Sur 0 -- -- 91
2018-05-20 06:00:00 14.2 5 Sudoeste 9 Sudoeste 0 -- -- 91
2018-05-20 05:00:00 14.5 5 Oeste 13 Noroeste 0 -- -- 89
2018-05-20 04:00:00 14.7 8 Noroeste 12 Noroeste 0 -- -- 88
2018-05-20 03:00:00 14.5 0 Calma 8 Sudeste 0 -- -- 89
2018-05-20 02:00:00 14.2 7 Sur 9 Sur 0 -- -- 88
2018-05-20 01:00:00 14.8 5 Sudeste 9 Sur 0 -- -- 85
2018-05-20 00:00:00 15.1 6 Sudeste 10 Sudoeste 0 -- -- 86
2018-05-19 23:00:00 16.1 4 Oeste 18 Sudoeste 0 -- -- 81
2018-05-19 22:00:00 16.9 10 Sudoeste 24 Sudoeste 0 -- -- 76
2018-05-19 21:00:00 17.6 14 Sudoeste 26 Sur 0 -- -- 73
2018-05-19 20:00:00 17.9 12 Sur 46 Sudeste 5.2 -- -- 79
2018-05-19 19:00:00 22.3 24 Sudeste 41 Sudeste 0.2 -- -- 60
2018-05-19 18:00:00 23.9 10 Nordeste 20 Nordeste 0 -- -- 49
2018-05-19 17:00:00 24 8 Nordeste 20 Nordeste 0 -- -- 47
2018-05-19 16:00:00 23.5 9 Nordeste 15 Nordeste 0 -- -- 50
2018-05-19 15:00:00 22.7 7 Nordeste 22 Nordeste 0 -- -- 51
2018-05-19 14:00:00 21.6 8 Nordeste 19 Este 0 -- -- 55
2018-05-19 13:00:00 20.7 7 Nordeste 13 Nordeste 0 -- -- 61
2018-05-19 12:00:00 19.5 6 Nordeste 13 Este 0 -- -- 67
2018-05-19 11:00:00 18.6 5 Este 10 Este 0 -- -- 71
2018-05-19 10:00:00 17.7 4 Este 7 Sur 0 -- -- 73
2018-05-19 09:00:00 15.3 0 Calma 9 Nordeste 0 -- -- 91
2018-05-19 08:00:00 13.7 5 Nordeste 8 Nordeste 0 -- -- 99
2018-05-19 07:00:00 13.9 2 Este 14 Nordeste 0 -- -- 97
2018-05-19 06:00:00 14 5 Sur 10 Sudeste 0 -- -- 95
2018-05-19 05:00:00 14.1 8 Sudeste 11 Sudeste 0 -- -- 97
2018-05-19 04:00:00 13.9 2 Este 8 Sur 0 -- -- 96
2018-05-19 03:00:00 14 5 Sudoeste 12 Sur 0 -- -- 95
2018-05-19 02:00:00 14.2 8 Sudeste 13 Sudeste 0 -- -- 94
2018-05-19 01:00:00 14.4 8 Sur 16 Sur 0 -- -- 92
2018-05-19 00:00:00 14.5 9 Sur 13 Sur 0 -- -- 93
2018-05-18 23:00:00 14.9 4 Noroeste 8 Oeste 0 -- -- 92
2018-05-18 22:00:00 14.9 3 Oeste 11 Sur 0.2 -- -- 91
2018-05-18 21:00:00 14.8 9 Sur 19 Este 0 -- -- 90
2018-05-18 20:00:00 14.7 13 Este 24 Este 0 -- -- 90
2018-05-18 19:00:00 14.6 15 Este 36 Nordeste 3.8 -- -- 92
2018-05-18 18:00:00 14.2 14 Sudeste 42 Sudeste 9.2 -- -- 86
2018-05-18 17:00:00 14.3 19 Sudeste 45 Norte 7.2 -- -- 83
2018-05-18 16:00:00 23.1 11 Sudeste 33 Sur 0 -- -- 48
2018-05-18 15:00:00 25.9 18 Sudoeste 30 Sur 0 -- -- 39
2018-05-18 14:00:00 24.4 9 Sudoeste 23 Sudoeste 0 -- -- 43
2018-05-18 13:00:00 22.3 9 Sudoeste 24 Oeste 0 -- -- 49
2018-05-18 12:00:00 21.5 3 Sudeste 18 Norte 0 -- -- 54
2018-05-18 11:00:00 20.7 5 Sur 13 Sur 0 -- -- 62
2018-05-18 10:00:00 18.8 5 Sudeste 11 Sur 0 -- -- 70
2018-05-18 09:00:00 16.9 4 Sudeste 8 Sur 0 -- -- 80
2018-05-18 08:00:00 14.7 3 Nordeste 10 Sudoeste 0 -- -- 87
2018-05-18 07:00:00 15 9 Sudoeste 22 Sur 0.2 -- -- 86
2018-05-18 06:00:00 15.6 15 Sudeste 22 Sudeste 0.4 -- -- 80
2018-05-18 05:00:00 16.5 9 Noroeste 15 Norte 0 -- -- 64
2018-05-18 04:00:00 17.6 0 Calma 12 Sur 0 -- -- 59
2018-05-18 03:00:00 17.4 8 Sur 10 Sur 0 -- -- 59
2018-05-18 02:00:00 17.9 5 Norte 23 Norte 0 -- -- 59
2018-05-18 01:00:00 19.6 20 Nordeste 30 Nordeste 0 -- -- 53
2018-05-18 00:00:00 20.8 18 Oeste 35 Sudoeste 0 -- -- 51
2018-05-17 23:00:00 21.8 6 Sur 8 Sur 0 -- -- 30
2018-05-17 22:00:00 23.3 6 Sudeste 8 Este 0 -- -- 28
2018-05-17 21:00:00 25.7 3 Este 15 Este 0 -- -- 24
2018-05-17 20:00:00 27.2 5 Este 19 Este 0 -- -- 22
2018-05-17 19:00:00 27.6 12 Este 27 Nordeste 0 -- -- 22
2018-05-17 18:00:00 27.7 13 Nordeste 27 Nordeste 0 -- -- 22
2018-05-17 17:00:00 27.9 14 Nordeste 27 Nordeste 0 -- -- 23
2018-05-17 16:00:00 27.4 13 Este 27 Este 0 -- -- 27
2018-05-17 15:00:00 26.3 14 Este 47 Este 0 -- -- 32
2018-05-17 14:00:00 24.9 10 Sudeste 26 Este 0 -- -- 39
2018-05-17 13:00:00 23.8 6 Este 19 Nordeste 0 -- -- 39
2018-05-17 12:00:00 21.4 7 Este 19 Este 0 -- -- 48
2018-05-17 11:00:00 19.7 7 Nordeste 13 Nordeste 0 -- -- 53
2018-05-17 10:00:00 18.2 6 Sudeste 14 Este 0 -- -- 57
2018-05-17 09:00:00 16.1 8 Sudeste 15 Sur 0 -- -- 60
2018-05-17 08:00:00 13.5 10 Sur 15 Sudeste 0 -- -- 66
2018-05-17 07:00:00 12.8 12 Sudeste 16 Sudeste 0 -- -- 65
2018-05-17 06:00:00 14.4 9 Sudeste 13 Sudeste 0 -- -- 55
2018-05-17 05:00:00 14.8 9 Sur 12 Sur 0 -- -- 53
2018-05-17 04:00:00 16.4 6 Sudeste 7 Sur 0 -- -- 52
2018-05-17 03:00:00 17.4 6 Sudeste 10 Sudeste 0 -- -- 51
2018-05-17 02:00:00 18.3 5 Este 13 Este 0 -- -- 50
2018-05-17 01:00:00 20 9 Nordeste 13 Nordeste 0 -- -- 45
2018-05-17 00:00:00 20.9 9 Nordeste 16 Nordeste 0 -- -- 42
2018-05-16 23:00:00 21.7 11 Nordeste 14 Nordeste 0 -- -- 37
2018-05-16 22:00:00 23 8 Nordeste 15 Este 0 -- -- 33
2018-05-16 21:00:00 25.8 10 Nordeste 20 Nordeste 0 -- -- 29
2018-05-16 20:00:00 27.2 11 Este 19 Este 0 -- -- 26
2018-05-16 19:00:00 27.8 15 Este 31 Nordeste 0 -- -- 26
2018-05-16 18:00:00 28.3 16 Nordeste 32 Este 0 -- -- 26
2018-05-16 17:00:00 27.9 14 Este 31 Este 0 -- -- 27
2018-05-16 16:00:00 27.7 15 Este 29 Este 0 -- -- 28
2018-05-16 15:00:00 27.3 15 Este 32 Nordeste 0 -- -- 30
2018-05-16 14:00:00 26.7 17 Nordeste 31 Este 0 -- -- 32
2018-05-16 13:00:00 25.8 17 Este 29 Nordeste 0 -- -- 33
2018-05-16 12:00:00 24.4 13 Este 22 Este 0 -- -- 39
2018-05-16 11:00:00 21.8 10 Este 19 Este 0 -- -- 43
2018-05-16 10:00:00 19.8 9 Este 16 Sudeste 0 -- -- 45
2018-05-16 09:00:00 16.3 6 Este 9 Sudeste 0 -- -- 53
2018-05-16 08:00:00 13.7 5 Sudeste 9 Sudeste 0 -- -- 53
2018-05-16 07:00:00 12.6 6 Sudeste 8 Sudeste 0 -- -- 54
2018-05-16 06:00:00 13 5 Sudeste 7 Nordeste 0 -- -- 51
2018-05-16 05:00:00 15.8 3 Norte 4 Norte 0 -- -- 49
2018-05-16 04:00:00 15.8 2 Nordeste 5 Oeste 0 -- -- 46
2018-05-16 03:00:00 16.8 5 Este 10 Nordeste 0 -- -- 44
2018-05-16 02:00:00 17.9 8 Nordeste 12 Nordeste 0 -- -- 41
2018-05-16 01:00:00 18 11 Nordeste 14 Nordeste 0 -- -- 40
2018-05-16 00:00:00 18.4 11 Nordeste 13 Nordeste 0 -- -- 38
2018-05-15 23:00:00 18.7 8 Nordeste 10 Norte 0 -- -- 38
2018-05-15 22:00:00 20.7 9 Norte 19 Norte 0 -- -- 35
2018-05-15 21:00:00 23.3 14 Norte 23 Nordeste 0 -- -- 32
2018-05-15 20:00:00 24.8 13 Nordeste 23 Nordeste 0 -- -- 28
2018-05-15 19:00:00 25.4 12 Norte 28 Nordeste 0 -- -- 28
2018-05-15 18:00:00 25.6 14 Nordeste 24 Nordeste 0 -- -- 27
2018-05-15 17:00:00 24.8 10 Este 26 Nordeste 0 -- -- 27
2018-05-15 16:00:00 24.7 15 Nordeste 31 Nordeste 0 -- -- 26
2018-05-15 15:00:00 24.1 12 Este 27 Este 0 -- -- 28
2018-05-15 14:00:00 23.3 12 Este 29 Este 0 -- -- 29
2018-05-15 13:00:00 22.3 17 Este 26 Este 0 -- -- 30
2018-05-15 12:00:00 20.9 16 Este 26 Este 0 -- -- 33
2018-05-15 11:00:00 19.5 16 Este 25 Este 0 -- -- 37
2018-05-15 10:00:00 17.5 13 Sudeste 19 Sudeste 0 -- -- 45
2018-05-15 09:00:00 14.9 9 Este 14 Sudeste 0 -- -- 56
2018-05-15 08:00:00 12 9 Este 11 Este 0 -- -- 71
2018-05-15 07:00:00 11.3 8 Este 9 Este 0 -- -- 76
2018-05-15 06:00:00 11.5 6 Este 8 Este 0 -- -- 75
2018-05-15 05:00:00 12.3 8 Este 10 Este 0 -- -- 73
2018-05-15 04:00:00 12.8 6 Este 8 Este 0 -- -- 69
2018-05-15 03:00:00 13.7 6 Este 14 Nordeste 0 -- -- 64
2018-05-15 02:00:00 14.9 9 Nordeste 13 Nordeste 0 -- -- 59
2018-05-15 01:00:00 15.7 10 Nordeste 13 Nordeste 0 -- -- 56
2018-05-15 00:00:00 16.2 10 Nordeste 14 Nordeste 0 -- -- 53
2018-05-14 23:00:00 17.2 10 Nordeste 18 Nordeste 0 -- -- 49
2018-05-14 22:00:00 19.1 11 Nordeste 32 Nordeste 0 -- -- 46
2018-05-14 21:00:00 21.2 24 Nordeste 34 Nordeste 0 -- -- 42
2018-05-14 20:00:00 22 14 Nordeste 33 Nordeste 0 -- -- 38
2018-05-14 19:00:00 22.7 19 Nordeste 38 Norte 0 -- -- 38
2018-05-14 18:00:00 22.5 22 Norte 42 Nordeste 0 -- -- 39
2018-05-14 17:00:00 23 26 Norte 41 Nordeste 0 -- -- 40
2018-05-14 16:00:00 22.8 20 Norte 37 Norte 0 -- -- 41
2018-05-14 15:00:00 22.6 17 Norte 35 Norte 0 -- -- 42
2018-05-14 14:00:00 21.5 21 Norte 34 Nordeste 0 -- -- 43
2018-05-14 13:00:00 19.5 10 Norte 25 Norte 0 -- -- 48
2018-05-14 12:00:00 17.7 14 Norte 26 Norte 0 -- -- 51
2018-05-14 11:00:00 15.7 10 Norte 21 Norte 0 -- -- 57
2018-05-14 10:00:00 13.6 10 Norte 22 Norte 0 -- -- 63
2018-05-14 09:00:00 12 12 Norte 23 Norte 0 -- -- 67
2018-05-14 08:00:00 9.7 6 Noroeste 21 Noroeste 0 -- -- 75
2018-05-14 07:00:00 9 14 Norte 21 Norte 0 -- -- 77
2018-05-14 06:00:00 8.7 10 Noroeste 14 Noroeste 0 -- -- 77
2018-05-14 05:00:00 9.1 7 Sudoeste 13 Noroeste 0 -- -- 71
2018-05-14 04:00:00 10.1 5 Noroeste 12 Norte 0 -- -- 68
2018-05-14 03:00:00 10.9 4 Noroeste 10 Norte 0 -- -- 64
2018-05-14 02:00:00 12.2 6 Noroeste 18 Norte 0 -- -- 58
2018-05-14 01:00:00 13.3 15 Nordeste 18 Norte 0 -- -- 52
2018-05-11 20:00:00 -- -- -- -- -- -- -- -- --
2018-05-11 19:00:00 -- -- -- -- -- -- -- -- --
2018-05-11 18:00:00 -- -- -- -- -- -- -- -- --
2018-05-11 17:00:00 -- -- -- -- -- -- -- -- --
2018-05-11 16:00:00 24 17 Nordeste 27 Norte 0 -- -- 47
2018-05-11 15:00:00 24.6 9 Oeste 22 Oeste 0 -- -- 45
2018-05-11 14:00:00 24.3 6 Noroeste 18 Sudoeste 0 -- -- 47
2018-05-11 13:00:00 23.2 4 Sur 17 Sudoeste 0 -- -- 49
2018-05-11 12:00:00 21.9 5 Oeste 15 Noroeste 0 -- -- 53
2018-05-11 11:00:00 19.9 3 Sur 10 Sur 0 -- -- 58
2018-05-11 10:00:00 17.8 5 Sur 10 Sur 0 -- -- 66
2018-05-11 09:00:00 15.1 4 Sudeste 8 Sudeste 0 -- -- 76
2018-05-11 08:00:00 12.6 4 Sudeste 8 Sudeste 0 -- -- 81
2018-05-11 07:00:00 11.9 5 Sur 10 Sur 0 -- -- 82
2018-05-11 06:00:00 12.6 8 Sur 12 Sur 0 -- -- 82
2018-05-11 05:00:00 13.3 9 Sur 10 Sur 0 -- -- 79
2018-05-11 04:00:00 14.2 5 Sudoeste 10 Norte 0 -- -- 77
2018-05-11 03:00:00 14.8 6 Norte 12 Sur 0 -- -- 73
2018-05-11 02:00:00 15.7 9 Sur 15 Sudoeste 0 -- -- 71
2018-05-11 01:00:00 16.9 10 Sudoeste 15 Noroeste 0 -- -- 63
2018-05-11 00:00:00 19.4 10 Noroeste 13 Noroeste 0 -- -- 58
2018-05-10 23:00:00 20.4 6 Norte 11 Norte 0 -- -- 52
2018-05-10 22:00:00 21 5 Este 8 Este 0 -- -- 54
2018-05-10 21:00:00 22.7 7 Este 14 Este 0 -- -- 49
2018-05-10 20:00:00 24.1 7 Este 17 Nordeste 0 -- -- 45
2018-05-10 19:00:00 24.3 10 Nordeste 26 Este 0 -- -- 44
2018-05-10 18:00:00 24.7 10 Este 22 Nordeste 0 -- -- 42
2018-05-10 17:00:00 24.7 9 Sudeste 24 Este 0 -- -- 41
2018-05-10 16:00:00 23.7 8 Este 22 Este 0 -- -- 44
2018-05-10 15:00:00 23.2 9 Este 21 Sur 0 -- -- 42
2018-05-10 14:00:00 21.5 10 Sudeste 20 Sudeste 0 -- -- 48
2018-05-10 13:00:00 19.9 8 Sur 18 Sur 0 -- -- 54
2018-05-10 12:00:00 17.9 8 Sudeste 19 Sudoeste 0 -- -- 59
2018-05-10 11:00:00 16.2 6 Sudeste 12 Sudeste 0 -- -- 64
2018-05-10 10:00:00 14 0 Calma 9 Noroeste 0 -- -- 73
2018-05-10 09:00:00 12.1 3 Oeste 7 Noroeste 0 -- -- 82
2018-05-10 08:00:00 9.9 3 Sudoeste 10 Sudoeste 0 -- -- 88
2018-05-10 07:00:00 10.1 5 Oeste 12 Oeste 0 -- -- 88
2018-05-10 06:00:00 10.5 9 Oeste 17 Oeste 0 -- -- 87
2018-05-10 05:00:00 10.9 9 Oeste 21 Noroeste 0 -- -- 85
2018-05-10 04:00:00 11.1 11 Oeste 22 Oeste 0 -- -- 84
2018-05-10 03:00:00 11.6 14 Oeste 29 Noroeste 0 -- -- 82
2018-05-10 02:00:00 12.3 13 Noroeste 29 Noroeste 0 -- -- 79
2018-05-10 01:00:00 12.9 14 Noroeste 29 Noroeste 0 -- -- 77
2018-05-10 00:00:00 14.1 17 Noroeste 31 Noroeste 0 -- -- 75
2018-05-09 23:00:00 15.2 17 Noroeste 28 Noroeste 0 -- -- 75
2018-05-09 22:00:00 16 21 Noroeste 36 Noroeste 0 -- -- 73
2018-05-09 21:00:00 18 24 Noroeste 36 Noroeste 0 -- -- 73
2018-05-09 20:00:00 18.7 21 Noroeste 35 Oeste 0 -- -- 70
2018-05-09 19:00:00 20 19 Oeste 39 Oeste 0 -- -- 65
2018-05-09 18:00:00 20.7 26 Noroeste 39 Noroeste 0 -- -- 63
2018-05-09 17:00:00 21.5 26 Noroeste 43 Noroeste 0 -- -- 62
2018-05-09 16:00:00 21.8 20 Noroeste 36 Noroeste 0 -- -- 61
2018-05-09 15:00:00 21.4 15 Noroeste 31 Noroeste 0 -- -- 63
2018-05-09 14:00:00 19.4 14 Noroeste 26 Noroeste 0 -- -- 71
2018-05-09 13:00:00 16.5 11 Noroeste 22 Noroeste 0 -- -- 81
2018-05-09 12:00:00 14.4 10 Noroeste 23 Noroeste 0 -- -- 87
2018-05-09 11:00:00 13.6 12 Noroeste 19 Noroeste 0 -- -- 90
2018-05-09 10:00:00 13.3 12 Noroeste 21 Noroeste 0 -- -- 91
2018-05-09 09:00:00 13.6 6 Noroeste 12 Sudoeste 0 -- -- 92
2018-05-09 08:00:00 11.8 9 Sudoeste 13 Oeste 0 -- -- 96
2018-05-09 07:00:00 11.9 5 Oeste 27 Noroeste 0 -- -- 95
2018-05-09 06:00:00 12.3 18 Noroeste 27 Noroeste 0 -- -- 93
2018-05-09 05:00:00 13.4 17 Noroeste 22 Noroeste 0 -- -- 88
2018-05-09 04:00:00 14.9 12 Noroeste 21 Noroeste 0 -- -- 82
2018-05-09 03:00:00 15.7 7 Sudoeste 16 Este 0 -- -- 77
2018-05-09 02:00:00 16.4 7 Noroeste 12 Noroeste 0 -- -- 78
2018-05-09 01:00:00 17.2 4 Oeste 17 Noroeste 0 -- -- 76
2018-05-09 00:00:00 17.9 11 Noroeste 25 Noroeste 0 -- -- 75
2018-05-08 23:00:00 19.6 10 Noroeste 25 Oeste 0 -- -- 72
2018-05-08 22:00:00 21.7 13 Noroeste 32 Noroeste 0 -- -- 60
2018-05-08 21:00:00 23.5 13 Noroeste 30 Noroeste 0 -- -- 51
2018-05-08 20:00:00 25.3 19 Noroeste 35 Noroeste 0 -- -- 49
2018-05-08 19:00:00 26.5 19 Noroeste 34 Noroeste 0 -- -- 47
2018-05-08 18:00:00 25.4 21 Noroeste 38 Norte 0 -- -- 49
2018-05-08 17:00:00 25.8 21 Noroeste 34 Noroeste 0 -- -- 52
2018-05-08 16:00:00 25.3 19 Noroeste 36 Noroeste 0 -- -- 49
2018-05-08 15:00:00 24.4 17 Noroeste 35 Noroeste 0 -- -- 53
2018-05-08 14:00:00 23 18 Noroeste 28 Noroeste 0 -- -- 60
2018-05-08 13:00:00 22.5 8 Noroeste 22 Noroeste 0 -- -- 58
2018-05-08 12:00:00 22.4 10 Noroeste 21 Norte 0 -- -- 65
2018-05-08 11:00:00 20.6 9 Noroeste 17 Noroeste 0 -- -- 70
2018-05-08 10:00:00 18.6 13 Noroeste 21 Noroeste 0 -- -- 78
2018-05-08 09:00:00 16.4 13 Noroeste 18 Noroeste 0 -- -- 87
2018-05-08 08:00:00 15.5 9 Noroeste 18 Noroeste 0 -- -- 88
2018-05-08 07:00:00 15.8 9 Noroeste 12 Noroeste 0 -- -- 86
2018-05-08 06:00:00 15.9 7 Noroeste 13 Noroeste 0 -- -- 85
2018-05-08 05:00:00 15.6 9 Oeste 13 Oeste 0 -- -- 87
2018-05-08 04:00:00 15.7 6 Oeste 14 Noroeste 0 -- -- 85
2018-05-08 03:00:00 16.2 11 Noroeste 19 Noroeste 0 -- -- 85
2018-05-08 02:00:00 16.2 14 Noroeste 22 Noroeste 0 -- -- 84
2018-05-08 01:00:00 16.5 15 Noroeste 24 Noroeste 0 -- -- 82
2018-05-08 00:00:00 16.8 13 Noroeste 21 Noroeste 0 -- -- 78
2018-05-07 23:00:00 17.5 16 Noroeste 24 Noroeste 0 -- -- 72
2018-05-07 22:00:00 18.7 13 Noroeste 31 Noroeste 0 -- -- 67
2018-05-07 21:00:00 20.2 13 Oeste 26 Noroeste 0 -- -- 61
2018-05-07 20:00:00 20.9 15 Oeste 30 Oeste 0 -- -- 64
2018-05-07 19:00:00 21.8 24 Sudoeste 31 Sudoeste 0 -- -- 56
2018-05-07 18:00:00 25.3 11 Nordeste 22 Nordeste 0 -- -- 39
2018-05-07 17:00:00 26.1 14 Este 23 Nordeste 0 -- -- 38
2018-05-07 16:00:00 26.1 9 Este 18 Este 0 -- -- 40
2018-05-07 15:00:00 25.3 10 Este 18 Este 0 -- -- 42
2018-05-07 14:00:00 24 9 Este 18 Este 0 -- -- 49
2018-05-07 13:00:00 23 9 Este 17 Nordeste 0 -- -- 55
2018-05-07 12:00:00 21.6 5 Este 11 Este 0 -- -- 59
2018-05-07 11:00:00 20.3 5 Sudeste 11 Sudeste 0 -- -- 69
2018-05-07 10:00:00 18.1 5 Sudeste 12 Sur 0 -- -- 76
2018-05-07 09:00:00 15.3 8 Sudeste 13 Sur 0 -- -- 84
2018-05-07 08:00:00 13 10 Sudeste 12 Sudeste 0 -- -- 90
2018-05-07 07:00:00 12.5 10 Sur 17 Sur 0 -- -- 92
2018-05-07 06:00:00 13 11 Sur 13 Sur 0 -- -- 92
2018-05-07 05:00:00 13.6 8 Este 10 Sudeste 0 -- -- 91
2018-05-07 04:00:00 14.3 7 Sur 11 Sur 0 -- -- 87
2018-05-07 03:00:00 15.4 9 Sur 11 Sur 0 -- -- 83
2018-05-07 02:00:00 14.8 2 Oeste 7 Sudoeste 0 -- -- 84
2018-05-07 01:00:00 15.3 6 Este 12 Sudeste 0 -- -- 81
2018-05-07 00:00:00 16.9 6 Sur 16 Sur 0 -- -- 71
2018-05-06 23:00:00 17.5 14 Sur 26 Sur 0 -- -- 74
2018-05-06 22:00:00 18.1 5 Sudeste 7 Sudeste 0 -- -- 71
2018-05-06 21:00:00 18.8 7 Este 11 Nordeste 0 -- -- 70
2018-05-06 20:00:00 18.6 11 Este 21 Sudeste 0.6 -- -- 79
2018-05-06 19:00:00 20.2 10 Este 33 Nordeste 0 -- -- 59
2018-05-06 18:00:00 19.9 15 Este 41 Este 1.2 -- -- 69
2018-05-06 17:00:00 25.9 14 Este 37 Este 0 -- -- 38
2018-05-06 16:00:00 25.4 11 Este 26 Este 0 -- -- 40
2018-05-06 15:00:00 25.4 10 Este 25 Este 0 -- -- 42
2018-05-06 14:00:00 25.1 11 Sudeste 26 Este 0 -- -- 42
2018-05-06 13:00:00 24.2 10 Sudeste 23 Este 0 -- -- 44
2018-05-06 12:00:00 21.7 15 Sudeste 23 Sudeste 0 -- -- 53
2018-05-06 11:00:00 20.5 15 Sudeste 22 Sudeste 0 -- -- 57
2018-05-06 10:00:00 17.9 17 Sudeste 23 Sudeste 0 -- -- 62
2018-05-06 09:00:00 14.2 6 Este 12 Sudeste 0 -- -- 70
2018-05-06 08:00:00 12.2 8 Sudeste 16 Este 0 -- -- 72
2018-05-06 07:00:00 12.8 8 Este 11 Este 0 -- -- 67
2018-05-06 06:00:00 15.3 4 Oeste 8 Noroeste 0 -- -- 61
2018-05-06 05:00:00 14.8 0 Calma 3 Nordeste 0 -- -- 61
2018-05-06 04:00:00 16 3 Nordeste 4 Norte 0 -- -- 56
2018-05-06 03:00:00 15.8 0 Calma 5 Sudeste 0 -- -- 54
2018-05-06 02:00:00 16.8 2 Oeste 8 Norte 0 -- -- 52
2018-05-06 01:00:00 18.2 6 Norte 8 Norte 0 -- -- 48
2018-05-06 00:00:00 18.7 5 Noroeste 6 Norte 0 -- -- 45
2018-05-05 23:00:00 19 5 Norte 10 Norte 0 -- -- 43
2018-05-05 22:00:00 19.9 9 Norte 13 Nordeste 0 -- -- 42
2018-05-05 21:00:00 22.2 11 Nordeste 20 Nordeste 0 -- -- 37
2018-05-05 20:00:00 23.4 13 Nordeste 25 Nordeste 0 -- -- 36
2018-05-05 19:00:00 23.7 13 Nordeste 24 Este 0 -- -- 36
2018-05-05 18:00:00 24.6 13 Este 28 Norte 0 -- -- 34
2018-05-05 17:00:00 24.9 12 Nordeste 26 Nordeste 0 -- -- 34
2018-05-05 16:00:00 24.6 12 Norte 23 Norte 0 -- -- 35
2018-05-05 15:00:00 24.2 6 Sudeste 24 Nordeste 0 -- -- 36
2018-05-05 14:00:00 23.4 10 Este 20 Norte 0 -- -- 37
2018-05-05 13:00:00 22.1 8 Este 17 Este 0 -- -- 40
2018-05-05 12:00:00 21.4 6 Sur 13 Sudeste 0 -- -- 42
2018-05-05 11:00:00 19.5 5 Este 10 Este 0 -- -- 50
2018-05-05 10:00:00 17.3 4 Sudeste 8 Sur 0 -- -- 53
2018-05-05 09:00:00 14.1 5 Sur 11 Sur 0 -- -- 66
2018-05-05 08:00:00 10.3 10 Sur 11 Sur 0 -- -- 79
2018-05-05 07:00:00 9.4 2 Este 7 Sur 0 -- -- 76
2018-05-05 06:00:00 10.3 3 Oeste 8 Sudoeste 0 -- -- 68
2018-05-05 05:00:00 10.8 6 Sudoeste 14 Sur 0 -- -- 68
2018-05-05 04:00:00 11.3 12 Sur 15 Sudoeste 0 -- -- 64
2018-05-05 03:00:00 11.6 4 Sudoeste 8 Sur 0 -- -- 63
2018-05-05 02:00:00 13.6 4 Noroeste 11 Noroeste 0 -- -- 57
2018-05-05 01:00:00 14.6 4 Sudeste 6 Este 0 -- -- 53
2018-05-05 00:00:00 15.4 6 Este 7 Este 0 -- -- 50
2018-05-04 23:00:00 16.2 5 Este 9 Este 0 -- -- 49
2018-05-04 22:00:00 16.8 8 Este 11 Este 0 -- -- 46
2018-05-04 21:00:00 18.8 8 Este 19 Sudeste 0 -- -- 40
2018-05-04 20:00:00 20.5 11 Este 25 Nordeste 0 -- -- 37
2018-05-04 19:00:00 20.8 10 Este 20 Este 0 -- -- 37
2018-05-04 18:00:00 20.8 9 Este 24 Nordeste 0 -- -- 34
2018-05-04 17:00:00 20.8 13 Nordeste 27 Nordeste 0 -- -- 31
2018-05-04 16:00:00 20.3 12 Este 28 Este 0 -- -- 33
2018-05-04 15:00:00 19.8 13 Este 42 Nordeste 0 -- -- 37
2018-05-04 14:00:00 18.9 14 Nordeste 27 Este 0 -- -- 39
2018-05-04 13:00:00 18 17 Este 30 Nordeste 0 -- -- 43
2018-05-04 12:00:00 16.8 14 Este 27 Nordeste 0 -- -- 47
2018-05-04 11:00:00 15.3 16 Este 26 Este 0 -- -- 51
2018-05-04 10:00:00 13.9 17 Este 24 Este 0 -- -- 55
2018-05-04 09:00:00 11.9 8 Este 15 Este 0 -- -- 67
2018-05-04 08:00:00 9.2 10 Nordeste 15 Nordeste 0 -- -- 77
2018-05-04 07:00:00 9 4 Norte 11 Este 0 -- -- 74
2018-05-04 06:00:00 10.1 8 Este 11 Este 0 -- -- 71
2018-05-04 05:00:00 10.6 6 Este 9 Este 0 -- -- 67
2018-05-04 04:00:00 10.6 4 Oeste 10 Noroeste 0 -- -- 66
2018-05-04 03:00:00 11.6 7 Norte 12 Noroeste 0 -- -- 62
2018-05-04 02:00:00 12.6 9 Noroeste 14 Noroeste 0 -- -- 59
2018-05-04 01:00:00 13.7 10 Noroeste 19 Norte 0 -- -- 54
2018-05-04 00:00:00 15.2 15 Norte 24 Norte 0 -- -- 48
2018-05-03 23:00:00 16 12 Norte 17 Norte 0 -- -- 55
2018-05-03 22:00:00 17.3 9 Norte 19 Norte 0 -- -- 52
2018-05-03 21:00:00 18.9 13 Norte 31 Norte 0 -- -- 47
2018-05-03 20:00:00 19.9 23 Norte 34 Norte 0 -- -- 46
2018-05-03 19:00:00 20.5 22 Norte 37 Norte 0 -- -- 46
2018-05-03 18:00:00 20.8 14 Norte 33 Noroeste 0 -- -- 45
2018-05-03 17:00:00 21.7 14 Norte 33 Nordeste 0 -- -- 44
2018-05-03 16:00:00 20.7 18 Norte 31 Norte 0 -- -- 46
2018-05-03 15:00:00 20.4 10 Norte 23 Nordeste 0 -- -- 47
2018-05-03 14:00:00 19.9 10 Noroeste 22 Norte 0 -- -- 51
2018-05-03 13:00:00 18 10 Norte 19 Norte 0 -- -- 59
2018-05-03 12:00:00 16.5 10 Norte 18 Norte 0 -- -- 64
2018-05-03 11:00:00 15 8 Norte 20 Norte 0 -- -- 70
2018-05-03 10:00:00 13.1 10 Noroeste 14 Noroeste 0 -- -- 80
2018-05-03 09:00:00 10.7 8 Noroeste 14 Noroeste 0 -- -- 88
2018-05-03 08:00:00 8.9 9 Noroeste 12 Noroeste 0 -- -- 94
2018-05-03 07:00:00 8.5 6 Oeste 10 Oeste 0 -- -- 94
2018-05-03 06:00:00 8.9 6 Oeste 14 Noroeste 0 -- -- 94
2018-05-03 05:00:00 9.1 7 Noroeste 14 Noroeste 0 -- -- 93
2018-05-03 04:00:00 9.4 10 Noroeste 15 Noroeste 0 -- -- 91
2018-05-03 03:00:00 9.8 11 Noroeste 19 Noroeste 0 -- -- 88
2018-05-03 02:00:00 10.3 12 Noroeste 18 Noroeste 0 -- -- 84
2018-05-03 01:00:00 10.7 10 Noroeste 17 Noroeste 0 -- -- 80
2018-05-03 00:00:00 11.5 8 Noroeste 13 Noroeste 0 -- -- 73
2018-05-02 23:00:00 12.4 11 Noroeste 17 Noroeste 0 -- -- 67
2018-05-02 22:00:00 13.3 11 Norte 19 Noroeste 0 -- -- 63
2018-05-02 21:00:00 14.3 12 Noroeste 27 Noroeste 0 -- -- 58
2018-05-02 20:00:00 16.3 18 Noroeste 27 Noroeste 0 -- -- 50
2018-05-02 19:00:00 16.8 11 Norte 33 Noroeste 0 -- -- 44
2018-05-02 18:00:00 17 15 Norte 32 Norte 0 -- -- 45
2018-05-02 17:00:00 18.1 14 Oeste 32 Noroeste 0 -- -- 41
2018-05-02 16:00:00 17.8 14 Norte 29 Noroeste 0 -- -- 38
2018-05-02 15:00:00 17.2 14 Oeste 23 Oeste 0 -- -- 40
2018-05-02 14:00:00 16 9 Noroeste 25 Norte 0 -- -- 44
2018-05-02 13:00:00 14.8 7 Oeste 20 Noroeste 0 -- -- 49
2018-05-02 12:00:00 13.1 8 Norte 18 Noroeste 0 -- -- 55
2018-05-02 11:00:00 11.8 11 Noroeste 18 Noroeste 0 -- -- 67
2018-05-02 10:00:00 9.6 4 Oeste 13 Oeste 0 -- -- 76
2018-05-02 09:00:00 7.8 9 Oeste 13 Oeste 0 -- -- 80
2018-05-02 08:00:00 6.3 8 Oeste 12 Oeste 0 -- -- 85
2018-05-02 07:00:00 6.4 6 Oeste 15 Noroeste 0 -- -- 80
2018-05-02 06:00:00 6.9 6 Noroeste 13 Noroeste 0 -- -- 76
2018-05-02 05:00:00 6.4 8 Oeste 12 Oeste 0 -- -- 81
2018-05-02 04:00:00 7.7 9 Oeste 19 Oeste 0 -- -- 76
2018-05-02 03:00:00 8.4 11 Oeste 19 Oeste 0 -- -- 73
2018-05-02 02:00:00 9.2 10 Noroeste 22 Noroeste 0 -- -- 68
2018-05-02 01:00:00 10.1 13 Oeste 27 Noroeste 0 -- -- 64
2018-05-02 00:00:00 11.6 16 Noroeste 31 Noroeste 0 -- -- 61
2018-05-01 23:00:00 11.9 8 Oeste 18 Sudoeste 0 -- -- 66
2018-05-01 22:00:00 13.1 14 Sudoeste 18 Sudoeste 0 -- -- 59
2018-05-01 21:00:00 14.4 3 Este 12 Este 0 -- -- 50
2018-05-01 20:00:00 15.7 8 Este 13 Este 0 -- -- 42
2018-05-01 19:00:00 15.4 8 Este 42 Este 0 -- -- 44
2018-05-01 18:00:00 16.8 16 Nordeste 29 Nordeste 0 -- -- 42
2018-05-01 17:00:00 15.2 9 Nordeste 17 Sudeste 0 -- -- 52
2018-05-01 16:00:00 11.7 9 Sudeste 35 Este 0.6 -- -- 72
2018-05-01 15:00:00 15.6 14 Norte 39 Norte 0 -- -- 49
2018-05-01 14:00:00 14.2 17 Norte 33 Noroeste 0 -- -- 52
2018-05-01 13:00:00 14.3 15 Noroeste 26 Noroeste 0 -- -- 60
2018-05-01 12:00:00 13.2 13 Noroeste 22 Noroeste 0 -- -- 75
2018-05-01 11:00:00 10.8 10 Noroeste 18 Noroeste 0 -- -- 83
2018-05-01 10:00:00 9.6 11 Noroeste 19 Noroeste 0 -- -- 87
2018-05-01 09:00:00 8.5 12 Noroeste 18 Noroeste 0 -- -- 93
2018-05-01 08:00:00 8.3 10 Noroeste 17 Noroeste 0 -- -- 93
2018-05-01 07:00:00 8.7 5 Noroeste 13 Oeste 0 -- -- 91
2018-05-01 06:00:00 9 7 Oeste 14 Noroeste 0 -- -- 90
2018-05-01 05:00:00 9 7 Oeste 13 Oeste 0 -- -- 88
2018-05-01 04:00:00 9.2 8 Noroeste 14 Noroeste 0 -- -- 87
2018-05-01 03:00:00 9.6 8 Oeste 16 Noroeste 0 -- -- 85
2018-05-01 02:00:00 9.8 8 Oeste 10 Oeste 0 -- -- 84
2018-05-01 01:00:00 10.1 6 Oeste 13 Noroeste 0 -- -- 79
2018-05-01 00:00:00 10.4 10 Noroeste 13 Noroeste 0 -- -- 78
2018-04-30 23:00:00 11 8 Noroeste 19 Norte 0 -- -- 72
2018-04-30 22:00:00 11.7 15 Noroeste 28 Norte 0 -- -- 66
2018-04-30 21:00:00 13.3 12 Noroeste 21 Noroeste 0 -- -- 56
2018-04-30 20:00:00 14.2 4 Noroeste 24 Noroeste 0.2 -- -- 51
2018-04-30 19:00:00 14.6 15 Noroeste 31 Noroeste 0 -- -- 51
2018-04-30 18:00:00 15.9 14 Noroeste 28 Noroeste 0 -- -- 48
2018-04-30 17:00:00 16.5 13 Oeste 33 Noroeste 0 -- -- 45
2018-04-30 16:00:00 15.7 14 Noroeste 36 Oeste 0 -- -- 54
2018-04-30 15:00:00 14.1 13 Norte 25 Noroeste 0 -- -- 56
2018-04-30 14:00:00 14.2 13 Oeste 28 Noroeste 0 -- -- 61
2018-04-30 13:00:00 13 9 Sudoeste 21 Oeste 0 -- -- 71
2018-04-30 12:00:00 11.5 9 Oeste 17 Noroeste 0 -- -- 75
2018-04-30 11:00:00 10.2 5 Oeste 12 Oeste 0 -- -- 79
2018-04-30 10:00:00 9.2 7 Oeste 11 Sudoeste 0 -- -- 83
2018-04-30 09:00:00 7.6 4 Sudoeste 6 Oeste 0 -- -- 90
2018-04-30 08:00:00 6.9 5 Sudoeste 12 Oeste 0 -- -- 92
2018-04-30 07:00:00 6.7 9 Oeste 13 Oeste 0 -- -- 91
2018-04-30 06:00:00 6.8 10 Oeste 14 Oeste 0 -- -- 90
2018-04-30 05:00:00 6.3 8 Oeste 10 Oeste 0 -- -- 90
2018-04-30 04:00:00 6.9 7 Oeste 13 Oeste 0 -- -- 86
2018-04-30 03:00:00 7.4 6 Oeste 20 Noroeste 0 -- -- 84
2018-04-30 02:00:00 8.3 12 Noroeste 21 Noroeste 0 -- -- 79
2018-04-30 01:00:00 8.8 10 Oeste 15 Oeste 0 -- -- 79
2018-04-30 00:00:00 8.4 8 Oeste 13 Noroeste 0 -- -- 80
2018-04-29 23:00:00 9.3 6 Noroeste 18 Noroeste 0 -- -- 72
2018-04-29 22:00:00 10.2 10 Noroeste 31 Noroeste 0 -- -- 66
2018-04-29 21:00:00 11.4 15 Noroeste 33 Noroeste 0 -- -- 63
2018-04-29 20:00:00 12.8 22 Oeste 40 Oeste 0 -- -- 60
2018-04-29 19:00:00 12.5 23 Oeste 49 Noroeste 0 -- -- 68
2018-04-29 18:00:00 13.9 21 Oeste 45 Noroeste 0 -- -- 67
2018-04-29 17:00:00 11.5 24 Noroeste 60 Noroeste 0.8 -- -- 82
2018-04-29 16:00:00 13.5 29 Oeste 46 Noroeste 0 -- -- 70
2018-04-29 15:00:00 13.7 29 Oeste 51 Oeste 0 -- -- 62
2018-04-29 14:00:00 12.4 33 Oeste 51 Oeste 0 -- -- 71
2018-04-29 13:00:00 10.2 18 Noroeste 55 Noroeste 0.4 -- -- 85
2018-04-29 12:00:00 11.8 22 Noroeste 45 Oeste 0 -- -- 73
2018-04-29 11:00:00 10.3 22 Oeste 45 Oeste 0 -- -- 81
2018-04-29 10:00:00 9.7 26 Oeste 41 Oeste 0 -- -- 85
2018-04-29 09:00:00 8.3 24 Oeste 41 Oeste 0 -- -- 86
2018-04-29 08:00:00 7.1 22 Oeste 35 Oeste 0 -- -- 93
2018-04-29 07:00:00 7 21 Oeste 33 Oeste 0 -- -- 92
2018-04-29 06:00:00 7.3 19 Oeste 33 Oeste 0 -- -- 93
2018-04-29 05:00:00 7.4 21 Oeste 35 Oeste 0.2 -- -- 93
2018-04-29 04:00:00 7.4 20 Oeste 38 Oeste 0 -- -- 93
2018-04-29 03:00:00 7.7 19 Oeste 38 Oeste 0 -- -- 92
2018-04-29 02:00:00 8 21 Oeste 36 Oeste 0 -- -- 91
2018-04-29 01:00:00 7.9 20 Oeste 33 Oeste 2 -- -- 92
2018-04-29 00:00:00 8.4 10 Noroeste 26 Noroeste 3 -- -- 95
2018-04-28 23:00:00 8.4 12 Noroeste 23 Noroeste 4.8 -- -- 91
2018-04-28 22:00:00 10.1 6 Noroeste 33 Noroeste 0 -- -- 77
2018-04-28 21:00:00 10.5 8 Sudoeste 42 Sudoeste 0.2 -- -- 77
2018-04-28 20:00:00 14 24 Oeste 39 Oeste 0 -- -- 54
2018-04-28 19:00:00 15.6 10 Oeste 24 Sudoeste 0 -- -- 42
2018-04-28 18:00:00 15.6 19 Oeste 30 Oeste 0 -- -- 41
2018-04-28 17:00:00 16 15 Noroeste 37 Oeste 0 -- -- 45
2018-04-28 16:00:00 15.1 19 Oeste 33 Oeste 0 -- -- 47
2018-04-28 15:00:00 14.4 18 Oeste 36 Noroeste 0 -- -- 48
2018-04-28 14:00:00 14.1 15 Oeste 31 Norte 0 -- -- 50
2018-04-28 13:00:00 13 16 Noroeste 37 Noroeste 0 -- -- 56
2018-04-28 12:00:00 13.6 19 Noroeste 34 Noroeste 0 -- -- 55
2018-04-28 11:00:00 12.2 17 Noroeste 33 Noroeste 0 -- -- 61
2018-04-28 10:00:00 10.4 18 Noroeste 32 Noroeste 0 -- -- 71
2018-04-28 09:00:00 9.1 18 Oeste 31 Oeste 0 -- -- 77
2018-04-28 08:00:00 7.4 18 Oeste 29 Oeste 0 -- -- 83
2018-04-28 07:00:00 7.8 16 Oeste 29 Oeste 0 -- -- 81
2018-04-28 06:00:00 8.6 15 Oeste 32 Noroeste 0 -- -- 74
2018-04-28 05:00:00 9.9 17 Noroeste 31 Noroeste 0 -- -- 71
2018-04-28 04:00:00 11 18 Noroeste 30 Noroeste 0 -- -- 77
2018-04-28 03:00:00 11.8 21 Noroeste 32 Noroeste 0 -- -- 72
2018-04-28 02:00:00 12.3 20 Noroeste 31 Noroeste 0 -- -- 74
2018-04-28 01:00:00 13.2 16 Noroeste 28 Noroeste 0 -- -- 74
2018-04-28 00:00:00 14.2 18 Noroeste 28 Norte 0 -- -- 75